Terminal Aerodrome Forecast
Issued by NWS

Home | Current Version | Previous Version | Text Only | Print | Product List | Glossary On
Versions: 1 2 3 4 5 6 7 8 9 10 11 12 13 14 15 16 17 18
142
FTUS43 KPAH 210520
TAFCGI
TAF
KCGI 210520Z 2106/2206 07005KT P6SM FEW250
     FM211400 10010KT P6SM SCT250
     FM212000 08005KT P6SM BKN250=

USA.gov is the U.S. government's official web portal to all federal, state and local government web resources and services.